sensor_id;sensor_type;location;lat;lon;timestamp;temperature;humidity
56542;DHT22;42438;53.174;6.730;2023-04-06T00:00:40;3.00;99.90
56542;DHT22;42438;53.174;6.730;2023-04-06T00:03:10;2.60;99.90
56542;DHT22;42438;53.174;6.730;2023-04-06T00:05:41;3.50;99.90
56542;DHT22;42438;53.174;6.730;2023-04-06T00:08:12;2.60;99.90
56542;DHT22;42438;53.174;6.730;2023-04-06T00:10:42;2.40;99.90
56542;DHT22;42438;53.174;6.730;2023-04-06T00:13:13;2.60;99.90
56542;DHT22;42438;53.174;6.730;2023-04-06T00:15:43;2.80;99.90
56542;DHT22;42438;53.174;6.730;2023-04-06T00:18:14;2.60;99.90
56542;DHT22;42438;53.174;6.730;2023-04-06T00:20:45;2.60;99.90
56542;DHT22;42438;53.174;6.730;2023-04-06T00:23:15;2.40;99.90
56542;DHT22;42438;53.174;6.730;2023-04-06T00:25:46;2.60;99.90
56542;DHT22;42438;53.174;6.730;2023-04-06T00:28:16;2.80;99.90
56542;DHT22;42438;53.174;6.730;2023-04-06T00:30:47;2.80;99.90
56542;DHT22;42438;53.174;6.730;2023-04-06T00:33:18;2.40;99.90
56542;DHT22;42438;53.174;6.730;2023-04-06T00:35:49;3.40;99.90
56542;DHT22;42438;53.174;6.730;2023-04-06T00:38:20;2.70;99.90
56542;DHT22;42438;53.174;6.730;2023-04-06T00:40:51;3.10;99.90
56542;DHT22;42438;53.174;6.730;2023-04-06T00:43:21;2.30;99.90
56542;DHT22;42438;53.174;6.730;2023-04-06T00:45:52;2.60;99.90
56542;DHT22;42438;53.174;6.730;2023-04-06T00:48:22;2.60;99.90
56542;DHT22;42438;53.174;6.730;2023-04-06T00:50:53;2.60;99.90
56542;DHT22;42438;53.174;6.730;2023-04-06T00:53:24;2.50;99.90
56542;DHT22;42438;53.174;6.730;2023-04-06T03:14:28;1.80;99.90
56542;DHT22;42438;53.174;6.730;2023-04-06T04:02:17;1.00;99.90
56542;DHT22;42438;53.174;6.730;2023-04-06T04:04:48;1.90;99.90
56542;DHT22;42438;53.174;6.730;2023-04-06T04:07:18;1.30;99.90
56542;DHT22;42438;53.174;6.730;2023-04-06T04:09:49;1.10;99.90
56542;DHT22;42438;53.174;6.730;2023-04-06T04:12:19;1.50;99.90
56542;DHT22;42438;53.174;6.730;2023-04-06T04:14:50;1.90;99.90
56542;DHT22;42438;53.174;6.730;2023-04-06T04:17:21;1.80;99.90
56542;DHT22;42438;53.174;6.730;2023-04-06T04:19:51;2.00;99.90
56542;DHT22;42438;53.174;6.730;2023-04-06T04:22:22;0.90;99.90
56542;DHT22;42438;53.174;6.730;2023-04-06T04:24:53;0.60;99.90
56542;DHT22;42438;53.174;6.730;2023-04-06T04:27:23;1.20;99.90
56542;DHT22;42438;53.174;6.730;2023-04-06T04:29:54;0.70;99.90
56542;DHT22;42438;53.174;6.730;2023-04-06T04:32:24;0.80;99.90
56542;DHT22;42438;53.174;6.730;2023-04-06T04:34:57;0.70;99.90
56542;DHT22;42438;53.174;6.730;2023-04-06T04:37:28;1.50;99.90
56542;DHT22;42438;53.174;6.730;2023-04-06T04:39:58;1.30;99.90
56542;DHT22;42438;53.174;6.730;2023-04-06T04:42:29;0.70;99.90
56542;DHT22;42438;53.174;6.730;2023-04-06T04:45:00;0.80;99.90
56542;DHT22;42438;53.174;6.730;2023-04-06T04:47:30;0.90;99.90
56542;DHT22;42438;53.174;6.730;2023-04-06T04:50:01;0.70;99.90
56542;DHT22;42438;53.174;6.730;2023-04-06T04:52:31;1.00;99.90
56542;DHT22;42438;53.174;6.730;2023-04-06T04:55:02;0.70;99.90
56542;DHT22;42438;53.174;6.730;2023-04-06T04:57:32;0.80;99.90
56542;DHT22;42438;53.174;6.730;2023-04-06T05:00:03;1.10;99.90
56542;DHT22;42438;53.174;6.730;2023-04-06T05:02:34;0.90;99.90
56542;DHT22;42438;53.174;6.730;2023-04-06T05:05:04;0.80;99.90
56542;DHT22;42438;53.174;6.730;2023-04-06T05:07:35;0.80;99.90
56542;DHT22;42438;53.174;6.730;2023-04-06T05:10:06;1.20;99.90
56542;DHT22;42438;53.174;6.730;2023-04-06T05:12:37;0.80;99.90
56542;DHT22;42438;53.174;6.730;2023-04-06T05:15:07;1.40;99.90
56542;DHT22;42438;53.174;6.730;2023-04-06T05:17:38;0.80;99.90
56542;DHT22;42438;53.174;6.730;2023-04-06T05:20:09;0.90;99.90
56542;DHT22;42438;53.174;6.730;2023-04-06T05:22:40;0.90;99.90
56542;DHT22;42438;53.174;6.730;2023-04-06T05:25:10;1.40;99.90
56542;DHT22;42438;53.174;6.730;2023-04-06T05:27:41;1.10;99.90
56542;DHT22;42438;53.174;6.730;2023-04-06T05:30:11;1.30;99.90
56542;DHT22;42438;53.174;6.730;2023-04-06T05:32:42;1.10;99.90
56542;DHT22;42438;53.174;6.730;2023-04-06T05:35:14;1.30;99.90
56542;DHT22;42438;53.174;6.730;2023-04-06T05:37:45;1.50;99.90
56542;DHT22;42438;53.174;6.730;2023-04-06T05:40:16;1.40;99.90
56542;DHT22;42438;53.174;6.730;2023-04-06T05:42:46;1.10;99.90
56542;DHT22;42438;53.174;6.730;2023-04-06T05:45:17;1.40;99.90
56542;DHT22;42438;53.174;6.730;2023-04-06T05:47:48;1.10;99.90
56542;DHT22;42438;53.174;6.730;2023-04-06T05:50:19;2.00;99.90
56542;DHT22;42438;53.174;6.730;2023-04-06T05:52:49;1.30;99.90
56542;DHT22;42438;53.174;6.730;2023-04-06T05:55:20;2.20;99.90
56542;DHT22;42438;53.174;6.730;2023-04-06T05:57:50;1.80;99.90
56542;DHT22;42438;53.174;6.730;2023-04-06T06:00:21;2.30;99.90
56542;DHT22;42438;53.174;6.730;2023-04-06T06:02:51;1.70;99.90
56542;DHT22;42438;53.174;6.730;2023-04-06T06:05:22;2.50;99.90
56542;DHT22;42438;53.174;6.730;2023-04-06T06:07:52;2.00;99.90
56542;DHT22;42438;53.174;6.730;2023-04-06T06:10:23;1.80;99.90
56542;DHT22;42438;53.174;6.730;2023-04-06T06:12:54;1.90;99.90
56542;DHT22;42438;53.174;6.730;2023-04-06T06:15:24;2.70;99.90
56542;DHT22;42438;53.174;6.730;2023-04-06T06:17:55;2.20;99.90
56542;DHT22;42438;53.174;6.730;2023-04-06T06:20:25;2.80;99.90
56542;DHT22;42438;53.174;6.730;2023-04-06T06:22:56;2.40;99.90
56542;DHT22;42438;53.174;6.730;2023-04-06T06:25:27;2.80;99.90
56542;DHT22;42438;53.174;6.730;2023-04-06T06:28:00;2.40;99.90
56542;DHT22;42438;53.174;6.730;2023-04-06T06:30:31;2.50;99.90
56542;DHT22;42438;53.174;6.730;2023-04-06T06:33:02;2.60;99.90
56542;DHT22;42438;53.174;6.730;2023-04-06T06:35:33;2.30;99.90
56542;DHT22;42438;53.174;6.730;2023-04-06T06:38:04;2.70;99.90
56542;DHT22;42438;53.174;6.730;2023-04-06T06:40:34;3.40;99.90
56542;DHT22;42438;53.174;6.730;2023-04-06T06:43:05;3.00;99.90
56542;DHT22;42438;53.174;6.730;2023-04-06T06:45:36;3.10;99.90
56542;DHT22;42438;53.174;6.730;2023-04-06T06:48:06;2.80;99.90
56542;DHT22;42438;53.174;6.730;2023-04-06T06:50:37;3.20;99.90
56542;DHT22;42438;53.174;6.730;2023-04-06T06:53:08;3.20;99.90
56542;DHT22;42438;53.174;6.730;2023-04-06T06:55:38;3.20;99.90
56542;DHT22;42438;53.174;6.730;2023-04-06T06:58:09;3.60;99.90
56542;DHT22;42438;53.174;6.730;2023-04-06T07:00:39;3.80;99.90
56542;DHT22;42438;53.174;6.730;2023-04-06T07:03:10;3.40;99.90
56542;DHT22;42438;53.174;6.730;2023-04-06T07:05:47;3.60;99.90
56542;DHT22;42438;53.174;6.730;2023-04-06T07:08:24;3.50;99.90
56542;DHT22;42438;53.174;6.730;2023-04-06T07:10:54;4.20;99.90
56542;DHT22;42438;53.174;6.730;2023-04-06T07:13:28;3.60;99.90
56542;DHT22;42438;53.174;6.730;2023-04-06T07:15:59;4.00;99.90
56542;DHT22;42438;53.174;6.730;2023-04-06T07:18:30;4.50;99.90
56542;DHT22;42438;53.174;6.730;2023-04-06T07:21:00;4.00;99.90
56542;DHT22;42438;53.174;6.730;2023-04-06T07:23:31;4.50;99.90
56542;DHT22;42438;53.174;6.730;2023-04-06T07:26:01;4.90;99.90
56542;DHT22;42438;53.174;6.730;2023-04-06T07:28:32;4.60;99.90
56542;DHT22;42438;53.174;6.730;2023-04-06T07:31:02;5.20;99.90
56542;DHT22;42438;53.174;6.730;2023-04-06T07:33:33;5.10;99.90
56542;DHT22;42438;53.174;6.730;2023-04-06T07:36:04;4.70;99.90
56542;DHT22;42438;53.174;6.730;2023-04-06T07:43:36;4.80;99.90
56542;DHT22;42438;53.174;6.730;2023-04-06T07:46:07;4.80;99.90
56542;DHT22;42438;53.174;6.730;2023-04-06T07:48:37;5.00;99.90
56542;DHT22;42438;53.174;6.730;2023-04-06T07:53:44;5.30;99.90
56542;DHT22;42438;53.174;6.730;2023-04-06T07:56:15;6.10;99.90
56542;DHT22;42438;53.174;6.730;2023-04-06T07:58:46;5.70;99.90
56542;DHT22;42438;53.174;6.730;2023-04-06T08:01:16;5.60;99.90
56542;DHT22;42438;53.174;6.730;2023-04-06T08:03:47;5.50;99.90
56542;DHT22;42438;53.174;6.730;2023-04-06T08:06:17;5.60;99.90
56542;DHT22;42438;53.174;6.730;2023-04-06T08:08:48;6.20;99.90
56542;DHT22;42438;53.174;6.730;2023-04-06T08:16:21;6.10;99.90
56542;DHT22;42438;53.174;6.730;2023-04-06T08:18:51;6.20;99.90
56542;DHT22;42438;53.174;6.730;2023-04-06T08:21:22;6.50;99.90
56542;DHT22;42438;53.174;6.730;2023-04-06T08:23:53;6.50;99.90
56542;DHT22;42438;53.174;6.730;2023-04-06T08:28:55;7.00;99.90
56542;DHT22;42438;53.174;6.730;2023-04-06T08:31:26;7.30;99.90
56542;DHT22;42438;53.174;6.730;2023-04-06T08:36:27;7.30;99.60
56542;DHT22;42438;53.174;6.730;2023-04-06T08:38:58;7.50;99.90
56542;DHT22;42438;53.174;6.730;2023-04-06T08:41:29;8.20;99.90
56542;DHT22;42438;53.174;6.730;2023-04-06T08:44:00;8.50;99.90
56542;DHT22;42438;53.174;6.730;2023-04-06T08:51:34;8.40;99.90
56542;DHT22;42438;53.174;6.730;2023-04-06T08:54:05;8.70;99.90
56542;DHT22;42438;53.174;6.730;2023-04-06T08:56:37;8.70;98.50
56542;DHT22;42438;53.174;6.730;2023-04-06T08:59:08;8.80;98.50
56542;DHT22;42438;53.174;6.730;2023-04-06T09:01:39;8.90;96.90
56542;DHT22;42438;53.174;6.730;2023-04-06T09:04:11;9.10;96.40
56542;DHT22;42438;53.174;6.730;2023-04-06T09:06:42;9.20;97.30
56542;DHT22;42438;53.174;6.730;2023-04-06T09:09:13;9.40;97.10
56542;DHT22;42438;53.174;6.730;2023-04-06T09:14:15;9.90;99.90
56542;DHT22;42438;53.174;6.730;2023-04-06T09:16:45;10.20;99.90
56542;DHT22;42438;53.174;6.730;2023-04-06T09:19:16;10.10;96.10
56542;DHT22;42438;53.174;6.730;2023-04-06T09:21:46;10.30;99.60
56542;DHT22;42438;53.174;6.730;2023-04-06T09:24:17;10.50;96.30
56542;DHT22;42438;53.174;6.730;2023-04-06T09:26:55;10.40;99.60
56542;DHT22;42438;53.174;6.730;2023-04-06T09:29:26;10.50;93.10
56542;DHT22;42438;53.174;6.730;2023-04-06T09:32:04;10.90;94.10
56542;DHT22;42438;53.174;6.730;2023-04-06T09:34:34;10.60;92.40
56542;DHT22;42438;53.174;6.730;2023-04-06T09:37:15;11.10;92.80
56542;DHT22;42438;53.174;6.730;2023-04-06T09:39:45;10.90;92.50
56542;DHT22;42438;53.174;6.730;2023-04-06T09:42:23;11.10;91.00
56542;DHT22;42438;53.174;6.730;2023-04-06T09:44:54;11.20;91.80
56542;DHT22;42438;53.174;6.730;2023-04-06T09:47:25;11.30;91.20
56542;DHT22;42438;53.174;6.730;2023-04-06T09:49:57;11.40;89.00
56542;DHT22;42438;53.174;6.730;2023-04-06T09:52:32;11.60;90.70
56542;DHT22;42438;53.174;6.730;2023-04-06T09:55:04;11.70;94.00
56542;DHT22;42438;53.174;6.730;2023-04-06T10:00:09;11.70;88.40
56542;DHT22;42438;53.174;6.730;2023-04-06T10:05:15;11.80;88.10
56542;DHT22;42438;53.174;6.730;2023-04-06T10:07:47;11.80;89.40
56542;DHT22;42438;53.174;6.730;2023-04-06T10:10:18;11.80;89.50
56542;DHT22;42438;53.174;6.730;2023-04-06T10:12:49;11.90;90.20
56542;DHT22;42438;53.174;6.730;2023-04-06T10:15:20;12.00;90.80
56542;DHT22;42438;53.174;6.730;2023-04-06T10:17:50;12.00;88.10
56542;DHT22;42438;53.174;6.730;2023-04-06T10:20:23;12.00;90.00
56542;DHT22;42438;53.174;6.730;2023-04-06T10:23:05;12.10;89.60
56542;DHT22;42438;53.174;6.730;2023-04-06T10:25:36;12.20;88.80
56542;DHT22;42438;53.174;6.730;2023-04-06T10:28:08;12.10;88.40
56542;DHT22;42438;53.174;6.730;2023-04-06T10:30:42;12.10;90.60
56542;DHT22;42438;53.174;6.730;2023-04-06T10:35:44;12.30;89.50
56542;DHT22;42438;53.174;6.730;2023-04-06T10:38:14;12.30;90.40
56542;DHT22;42438;53.174;6.730;2023-04-06T10:40:45;12.50;90.10
56542;DHT22;42438;53.174;6.730;2023-04-06T10:43:19;12.60;89.40
56542;DHT22;42438;53.174;6.730;2023-04-06T10:45:57;12.80;93.10
56542;DHT22;42438;53.174;6.730;2023-04-06T10:48:40;13.00;97.20
56542;DHT22;42438;53.174;6.730;2023-04-06T10:51:12;13.40;93.70
56542;DHT22;42438;53.174;6.730;2023-04-06T10:53:47;13.40;94.20
56542;DHT22;42438;53.174;6.730;2023-04-06T10:56:21;13.50;91.70
56542;DHT22;42438;53.174;6.730;2023-04-06T10:58:52;13.40;91.90
56542;DHT22;42438;53.174;6.730;2023-04-06T11:01:24;13.20;91.20
56542;DHT22;42438;53.174;6.730;2023-04-06T11:03:56;13.30;91.90
56542;DHT22;42438;53.174;6.730;2023-04-06T11:06:30;13.30;91.30
56542;DHT22;42438;53.174;6.730;2023-04-06T11:09:04;13.70;91.70
56542;DHT22;42438;53.174;6.730;2023-04-06T11:11:38;13.50;91.10
56542;DHT22;42438;53.174;6.730;2023-04-06T11:14:09;13.60;91.70
56542;DHT22;42438;53.174;6.730;2023-04-06T11:16:39;13.70;91.40
56542;DHT22;42438;53.174;6.730;2023-04-06T11:19:10;13.60;91.80
56542;DHT22;42438;53.174;6.730;2023-04-06T11:21:43;13.70;91.90
56542;DHT22;42438;53.174;6.730;2023-04-06T11:24:18;13.80;92.70
56542;DHT22;42438;53.174;6.730;2023-04-06T11:26:50;13.70;91.80
56542;DHT22;42438;53.174;6.730;2023-04-06T11:29:22;13.60;91.80
56542;DHT22;42438;53.174;6.730;2023-04-06T11:31:54;13.80;92.00
56542;DHT22;42438;53.174;6.730;2023-04-06T11:34:28;13.50;92.00
56542;DHT22;42438;53.174;6.730;2023-04-06T11:37:01;13.90;92.40
56542;DHT22;42438;53.174;6.730;2023-04-06T11:39:37;13.60;91.40
56542;DHT22;42438;53.174;6.730;2023-04-06T11:42:08;13.70;91.00
56542;DHT22;42438;53.174;6.730;2023-04-06T11:44:39;14.00;90.40
56542;DHT22;42438;53.174;6.730;2023-04-06T11:47:10;14.00;90.90
56542;DHT22;42438;53.174;6.730;2023-04-06T11:49:43;14.30;89.40
56542;DHT22;42438;53.174;6.730;2023-04-06T11:52:24;13.80;91.00
56542;DHT22;42438;53.174;6.730;2023-04-06T11:54:55;14.20;94.10
56542;DHT22;42438;53.174;6.730;2023-04-06T11:57:28;14.20;96.10
56542;DHT22;42438;53.174;6.730;2023-04-06T11:59:59;14.20;94.10
56542;DHT22;42438;53.174;6.730;2023-04-06T12:02:30;14.40;97.70
56542;DHT22;42438;53.174;6.730;2023-04-06T12:05:02;14.60;96.10
56542;DHT22;42438;53.174;6.730;2023-04-06T12:07:33;14.70;94.80
56542;DHT22;42438;53.174;6.730;2023-04-06T12:10:04;14.60;93.60
56542;DHT22;42438;53.174;6.730;2023-04-06T12:12:35;14.90;94.50
56542;DHT22;42438;53.174;6.730;2023-04-06T12:15:06;14.80;91.30
56542;DHT22;42438;53.174;6.730;2023-04-06T12:17:36;14.90;91.80
56542;DHT22;42438;53.174;6.730;2023-04-06T12:20:07;14.90;93.00
56542;DHT22;42438;53.174;6.730;2023-04-06T12:22:38;14.90;93.80
56542;DHT22;42438;53.174;6.730;2023-04-06T12:25:08;15.00;94.50
56542;DHT22;42438;53.174;6.730;2023-04-06T12:27:39;14.90;93.80
56542;DHT22;42438;53.174;6.730;2023-04-06T12:30:10;14.70;93.40
56542;DHT22;42438;53.174;6.730;2023-04-06T12:32:40;14.50;93.20
56542;DHT22;42438;53.174;6.730;2023-04-06T12:35:11;14.60;93.40
56542;DHT22;42438;53.174;6.730;2023-04-06T12:37:43;14.40;93.60
56542;DHT22;42438;53.174;6.730;2023-04-06T12:40:13;14.40;94.30
56542;DHT22;42438;53.174;6.730;2023-04-06T12:42:45;14.50;94.30
56542;DHT22;42438;53.174;6.730;2023-04-06T12:45:16;14.60;93.50
56542;DHT22;42438;53.174;6.730;2023-04-06T12:47:47;14.60;93.80
56542;DHT22;42438;53.174;6.730;2023-04-06T12:50:17;14.60;93.30
56542;DHT22;42438;53.174;6.730;2023-04-06T12:52:48;14.70;93.60
56542;DHT22;42438;53.174;6.730;2023-04-06T12:55:19;14.60;94.00
56542;DHT22;42438;53.174;6.730;2023-04-06T12:57:50;14.80;93.80
56542;DHT22;42438;53.174;6.730;2023-04-06T13:00:21;14.70;93.40
56542;DHT22;42438;53.174;6.730;2023-04-06T13:02:52;14.70;92.80
56542;DHT22;42438;53.174;6.730;2023-04-06T13:05:22;14.60;93.80
56542;DHT22;42438;53.174;6.730;2023-04-06T13:07:53;14.50;93.70
56542;DHT22;42438;53.174;6.730;2023-04-06T13:10:23;14.70;93.40
56542;DHT22;42438;53.174;6.730;2023-04-06T13:12:54;14.60;93.90
56542;DHT22;42438;53.174;6.730;2023-04-06T13:15:25;14.50;93.60
56542;DHT22;42438;53.174;6.730;2023-04-06T13:17:55;14.70;94.10
56542;DHT22;42438;53.174;6.730;2023-04-06T13:20:26;14.40;93.70
56542;DHT22;42438;53.174;6.730;2023-04-06T13:22:58;14.50;94.20
56542;DHT22;42438;53.174;6.730;2023-04-06T13:25:29;14.60;93.10
56542;DHT22;42438;53.174;6.730;2023-04-06T13:27:59;14.60;93.70
56542;DHT22;42438;53.174;6.730;2023-04-06T13:30:30;14.70;93.80
56542;DHT22;42438;53.174;6.730;2023-04-06T13:33:01;14.50;93.90
56542;DHT22;42438;53.174;6.730;2023-04-06T13:35:32;14.80;92.90
56542;DHT22;42438;53.174;6.730;2023-04-06T13:38:03;14.80;93.70
56542;DHT22;42438;53.174;6.730;2023-04-06T13:40:33;14.90;92.80
56542;DHT22;42438;53.174;6.730;2023-04-06T13:43:04;14.70;93.70
56542;DHT22;42438;53.174;6.730;2023-04-06T13:45:34;14.60;92.80
56542;DHT22;42438;53.174;6.730;2023-04-06T13:48:05;14.40;92.50
56542;DHT22;42438;53.174;6.730;2023-04-06T13:50:35;14.20;92.20
56542;DHT22;42438;53.174;6.730;2023-04-06T13:53:06;14.20;92.70
56542;DHT22;42438;53.174;6.730;2023-04-06T13:55:36;14.30;92.30
56542;DHT22;42438;53.174;6.730;2023-04-06T13:58:07;14.10;92.80
56542;DHT22;42438;53.174;6.730;2023-04-06T14:00:37;14.20;93.00
56542;DHT22;42438;53.174;6.730;2023-04-06T14:03:08;14.00;92.60
56542;DHT22;42438;53.174;6.730;2023-04-06T14:05:39;13.90;92.30
56542;DHT22;42438;53.174;6.730;2023-04-06T14:08:09;13.90;92.60
56542;DHT22;42438;53.174;6.730;2023-04-06T14:10:40;13.90;92.50
56542;DHT22;42438;53.174;6.730;2023-04-06T14:13:12;13.80;93.30
56542;DHT22;42438;53.174;6.730;2023-04-06T14:15:42;13.80;93.80
56542;DHT22;42438;53.174;6.730;2023-04-06T14:18:13;13.90;93.00
56542;DHT22;42438;53.174;6.730;2023-04-06T14:20:43;14.10;93.80
56542;DHT22;42438;53.174;6.730;2023-04-06T14:23:14;14.20;93.30
56542;DHT22;42438;53.174;6.730;2023-04-06T14:25:44;13.70;93.90
56542;DHT22;42438;53.174;6.730;2023-04-06T14:28:15;14.10;94.00
56542;DHT22;42438;53.174;6.730;2023-04-06T14:30:46;13.80;93.90
56542;DHT22;42438;53.174;6.730;2023-04-06T14:33:17;13.90;93.60
56542;DHT22;42438;53.174;6.730;2023-04-06T14:35:47;13.90;93.90
56542;DHT22;42438;53.174;6.730;2023-04-06T14:38:18;14.00;94.90
56542;DHT22;42438;53.174;6.730;2023-04-06T14:40:48;13.70;95.10
56542;DHT22;42438;53.174;6.730;2023-04-06T14:43:19;13.10;95.20
56542;DHT22;42438;53.174;6.730;2023-04-06T14:45:49;13.60;94.70
56542;DHT22;42438;53.174;6.730;2023-04-06T14:48:20;14.00;94.80
56542;DHT22;42438;53.174;6.730;2023-04-06T14:50:51;13.40;94.80
56542;DHT22;42438;53.174;6.730;2023-04-06T14:53:22;13.70;94.70
56542;DHT22;42438;53.174;6.730;2023-04-06T14:55:53;13.30;95.10
56542;DHT22;42438;53.174;6.730;2023-04-06T14:58:24;13.20;95.40
56542;DHT22;42438;53.174;6.730;2023-04-06T15:00:56;12.50;95.40
56542;DHT22;42438;53.174;6.730;2023-04-06T15:03:28;13.00;96.30
56542;DHT22;42438;53.174;6.730;2023-04-06T15:05:59;13.00;97.70
56542;DHT22;42438;53.174;6.730;2023-04-06T15:08:30;13.10;98.30
56542;DHT22;42438;53.174;6.730;2023-04-06T15:11:00;12.70;98.70
56542;DHT22;42438;53.174;6.730;2023-04-06T15:13:31;12.50;99.70
56542;DHT22;42438;53.174;6.730;2023-04-06T15:16:01;12.50;97.70
56542;DHT22;42438;53.174;6.730;2023-04-06T15:18:33;12.50;98.30
56542;DHT22;42438;53.174;6.730;2023-04-06T15:21:03;12.60;99.00
56542;DHT22;42438;53.174;6.730;2023-04-06T15:23:34;12.50;98.80
56542;DHT22;42438;53.174;6.730;2023-04-06T15:26:04;12.50;98.60
56542;DHT22;42438;53.174;6.730;2023-04-06T15:28:35;12.30;98.80
56542;DHT22;42438;53.174;6.730;2023-04-06T15:31:18;12.20;99.30
56542;DHT22;42438;53.174;6.730;2023-04-06T15:33:50;12.20;95.10
56542;DHT22;42438;53.174;6.730;2023-04-06T15:36:27;12.10;99.90
56542;DHT22;42438;53.174;6.730;2023-04-06T15:38:58;12.00;92.80
56542;DHT22;42438;53.174;6.730;2023-04-06T15:41:29;11.80;93.10
56542;DHT22;42438;53.174;6.730;2023-04-06T15:44:00;11.80;96.80
56542;DHT22;42438;53.174;6.730;2023-04-06T15:46:30;11.80;94.40
56542;DHT22;42438;53.174;6.730;2023-04-06T15:49:01;11.60;93.20
56542;DHT22;42438;53.174;6.730;2023-04-06T15:51:31;11.50;93.50
56542;DHT22;42438;53.174;6.730;2023-04-06T15:54:02;11.40;93.50
56542;DHT22;42438;53.174;6.730;2023-04-06T15:56:33;11.30;95.40
56542;DHT22;42438;53.174;6.730;2023-04-06T15:59:04;11.60;99.10
56542;DHT22;42438;53.174;6.730;2023-04-06T16:01:34;11.10;95.50
56542;DHT22;42438;53.174;6.730;2023-04-06T16:04:08;11.30;98.90
56542;DHT22;42438;53.174;6.730;2023-04-06T16:06:40;11.10;98.40
56542;DHT22;42438;53.174;6.730;2023-04-06T16:09:11;11.00;99.70
56542;DHT22;42438;53.174;6.730;2023-04-06T16:11:41;11.00;99.90
56542;DHT22;42438;53.174;6.730;2023-04-06T16:14:12;11.40;99.90
56542;DHT22;42438;53.174;6.730;2023-04-06T16:16:42;11.30;99.90
56542;DHT22;42438;53.174;6.730;2023-04-06T16:19:13;11.10;99.90
56542;DHT22;42438;53.174;6.730;2023-04-06T16:21:43;11.00;99.90
56542;DHT22;42438;53.174;6.730;2023-04-06T16:24:14;11.20;99.90
56542;DHT22;42438;53.174;6.730;2023-04-06T16:26:45;10.80;99.90
56542;DHT22;42438;53.174;6.730;2023-04-06T16:29:16;10.80;99.90
56542;DHT22;42438;53.174;6.730;2023-04-06T16:31:47;10.70;99.90
56542;DHT22;42438;53.174;6.730;2023-04-06T16:34:18;10.40;99.90
56542;DHT22;42438;53.174;6.730;2023-04-06T16:36:48;10.80;99.90
56542;DHT22;42438;53.174;6.730;2023-04-06T16:39:19;10.20;99.90
56542;DHT22;42438;53.174;6.730;2023-04-06T16:41:49;10.00;99.90
56542;DHT22;42438;53.174;6.730;2023-04-06T16:44:20;9.90;99.90
56542;DHT22;42438;53.174;6.730;2023-04-06T16:46:51;10.00;99.90
56542;DHT22;42438;53.174;6.730;2023-04-06T16:49:22;9.90;99.90
56542;DHT22;42438;53.174;6.730;2023-04-06T16:51:53;9.80;99.90
56542;DHT22;42438;53.174;6.730;2023-04-06T16:54:24;9.80;99.90
56542;DHT22;42438;53.174;6.730;2023-04-06T16:56:54;9.70;99.90
56542;DHT22;42438;53.174;6.730;2023-04-06T16:59:26;9.70;99.90
56542;DHT22;42438;53.174;6.730;2023-04-06T17:01:56;9.60;99.90
56542;DHT22;42438;53.174;6.730;2023-04-06T17:04:28;9.60;99.90
56542;DHT22;42438;53.174;6.730;2023-04-06T17:06:58;9.40;99.90
56542;DHT22;42438;53.174;6.730;2023-04-06T17:09:29;9.30;99.90
56542;DHT22;42438;53.174;6.730;2023-04-06T17:12:00;9.20;99.90
56542;DHT22;42438;53.174;6.730;2023-04-06T17:14:31;9.10;99.90
56542;DHT22;42438;53.174;6.730;2023-04-06T17:17:02;9.00;99.90
56542;DHT22;42438;53.174;6.730;2023-04-06T17:19:33;9.20;99.90
56542;DHT22;42438;53.174;6.730;2023-04-06T17:22:03;9.50;99.90
56542;DHT22;42438;53.174;6.730;2023-04-06T17:24:34;8.70;99.90
56542;DHT22;42438;53.174;6.730;2023-04-06T17:27:05;8.80;99.90
56542;DHT22;42438;53.174;6.730;2023-04-06T17:29:36;8.60;99.90
56542;DHT22;42438;53.174;6.730;2023-04-06T17:32:07;8.70;99.90
56542;DHT22;42438;53.174;6.730;2023-04-06T17:34:38;8.80;99.90
56542;DHT22;42438;53.174;6.730;2023-04-06T17:37:08;8.90;99.90
56542;DHT22;42438;53.174;6.730;2023-04-06T17:39:39;8.80;99.90
56542;DHT22;42438;53.174;6.730;2023-04-06T17:42:09;8.90;99.90
56542;DHT22;42438;53.174;6.730;2023-04-06T17:47:11;8.10;99.90
56542;DHT22;42438;53.174;6.730;2023-04-06T17:49:42;8.20;99.90
56542;DHT22;42438;53.174;6.730;2023-04-06T17:52:12;8.00;99.90
56542;DHT22;42438;53.174;6.730;2023-04-06T17:54:43;8.00;99.90
56542;DHT22;42438;53.174;6.730;2023-04-06T17:57:14;8.00;99.90
56542;DHT22;42438;53.174;6.730;2023-04-06T17:59:45;8.00;99.90
56542;DHT22;42438;53.174;6.730;2023-04-06T18:02:15;7.90;99.90
56542;DHT22;42438;53.174;6.730;2023-04-06T18:04:49;7.80;99.90
56542;DHT22;42438;53.174;6.730;2023-04-06T18:07:20;7.80;99.90
56542;DHT22;42438;53.174;6.730;2023-04-06T18:09:50;7.80;99.90
56542;DHT22;42438;53.174;6.730;2023-04-06T18:12:21;7.80;99.90
56542;DHT22;42438;53.174;6.730;2023-04-06T18:14:52;8.10;99.90
56542;DHT22;42438;53.174;6.730;2023-04-06T18:17:22;7.60;99.90
56542;DHT22;42438;53.174;6.730;2023-04-06T18:19:53;7.70;99.90
56542;DHT22;42438;53.174;6.730;2023-04-06T18:22:23;7.70;99.90
56542;DHT22;42438;53.174;6.730;2023-04-06T18:24:54;7.70;99.90
56542;DHT22;42438;53.174;6.730;2023-04-06T18:27:24;7.60;99.90
56542;DHT22;42438;53.174;6.730;2023-04-06T18:29:55;7.60;99.90
56542;DHT22;42438;53.174;6.730;2023-04-06T18:32:26;7.60;99.90
56542;DHT22;42438;53.174;6.730;2023-04-06T18:34:59;7.50;99.90
56542;DHT22;42438;53.174;6.730;2023-04-06T18:37:30;7.60;99.90
56542;DHT22;42438;53.174;6.730;2023-04-06T18:40:01;7.60;99.90
56542;DHT22;42438;53.174;6.730;2023-04-06T18:42:31;7.50;99.90
56542;DHT22;42438;53.174;6.730;2023-04-06T18:45:02;7.50;99.90
56542;DHT22;42438;53.174;6.730;2023-04-06T18:47:32;7.60;99.90
56542;DHT22;42438;53.174;6.730;2023-04-06T18:50:03;7.50;99.90
56542;DHT22;42438;53.174;6.730;2023-04-06T18:52:34;7.50;99.90
56542;DHT22;42438;53.174;6.730;2023-04-06T18:55:05;7.40;99.90
56542;DHT22;42438;53.174;6.730;2023-04-06T18:57:36;7.40;99.90
56542;DHT22;42438;53.174;6.730;2023-04-06T19:00:07;7.50;99.90
56542;DHT22;42438;53.174;6.730;2023-04-06T19:02:37;7.50;99.90
56542;DHT22;42438;53.174;6.730;2023-04-06T19:05:09;7.00;99.90
56542;DHT22;42438;53.174;6.730;2023-04-06T19:07:40;7.10;99.90
56542;DHT22;42438;53.174;6.730;2023-04-06T19:10:11;7.30;99.90
56542;DHT22;42438;53.174;6.730;2023-04-06T19:12:43;7.30;99.90
56542;DHT22;42438;53.174;6.730;2023-04-06T19:15:13;7.40;99.90
56542;DHT22;42438;53.174;6.730;2023-04-06T19:17:44;7.40;99.90
56542;DHT22;42438;53.174;6.730;2023-04-06T19:20:15;7.30;99.90
56542;DHT22;42438;53.174;6.730;2023-04-06T19:22:45;7.40;99.90
56542;DHT22;42438;53.174;6.730;2023-04-06T19:25:16;7.20;99.90
56542;DHT22;42438;53.174;6.730;2023-04-06T19:27:47;7.40;99.90
56542;DHT22;42438;53.174;6.730;2023-04-06T19:30:17;7.90;99.90
56542;DHT22;42438;53.174;6.730;2023-04-06T19:32:49;8.20;99.90
56542;DHT22;42438;53.174;6.730;2023-04-06T19:35:20;7.40;99.90
56542;DHT22;42438;53.174;6.730;2023-04-06T19:37:50;7.40;99.90
56542;DHT22;42438;53.174;6.730;2023-04-06T19:40:22;7.50;99.90
56542;DHT22;42438;53.174;6.730;2023-04-06T19:42:52;7.40;99.90